sensor_id;sensor_type;location;lat;lon;timestamp;temperature;humidity
7472;DHT22;3777;48.722;8.110;2024-01-30T00:00:07;3.40;99.90
7472;DHT22;3777;48.722;8.110;2024-01-30T00:02:35;3.40;99.90
7472;DHT22;3777;48.722;8.110;2024-01-30T00:05:03;3.30;99.90
7472;DHT22;3777;48.722;8.110;2024-01-30T00:07:30;3.30;99.90
7472;DHT22;3777;48.722;8.110;2024-01-30T00:09:57;3.30;99.90
7472;DHT22;3777;48.722;8.110;2024-01-30T00:12:24;3.20;99.90
7472;DHT22;3777;48.722;8.110;2024-01-30T00:14:52;3.30;99.90
7472;DHT22;3777;48.722;8.110;2024-01-30T00:17:19;3.30;99.90
7472;DHT22;3777;48.722;8.110;2024-01-30T00:19:46;3.30;99.90
7472;DHT22;3777;48.722;8.110;2024-01-30T00:22:14;3.30;99.90
7472;DHT22;3777;48.722;8.110;2024-01-30T00:24:41;3.30;99.90
7472;DHT22;3777;48.722;8.110;2024-01-30T00:27:08;3.30;99.90
7472;DHT22;3777;48.722;8.110;2024-01-30T00:29:35;3.30;99.90
7472;DHT22;3777;48.722;8.110;2024-01-30T00:32:02;3.40;99.90
7472;DHT22;3777;48.722;8.110;2024-01-30T00:34:29;3.40;99.90
7472;DHT22;3777;48.722;8.110;2024-01-30T00:36:56;3.40;99.90
7472;DHT22;3777;48.722;8.110;2024-01-30T00:39:25;3.40;99.90
7472;DHT22;3777;48.722;8.110;2024-01-30T00:41:52;3.40;99.90
7472;DHT22;3777;48.722;8.110;2024-01-30T00:44:18;3.40;99.90
7472;DHT22;3777;48.722;8.110;2024-01-30T00:46:45;3.40;99.90
7472;DHT22;3777;48.722;8.110;2024-01-30T00:49:12;3.40;99.90
7472;DHT22;3777;48.722;8.110;2024-01-30T00:51:39;3.40;99.90
7472;DHT22;3777;48.722;8.110;2024-01-30T00:54:06;3.40;99.90
7472;DHT22;3777;48.722;8.110;2024-01-30T00:56:35;3.30;99.90
7472;DHT22;3777;48.722;8.110;2024-01-30T00:59:02;3.30;99.90
7472;DHT22;3777;48.722;8.110;2024-01-30T01:01:29;3.30;99.90
7472;DHT22;3777;48.722;8.110;2024-01-30T01:03:55;3.30;99.90
7472;DHT22;3777;48.722;8.110;2024-01-30T01:06:23;3.30;99.90
7472;DHT22;3777;48.722;8.110;2024-01-30T01:08:50;3.30;99.90
7472;DHT22;3777;48.722;8.110;2024-01-30T01:11:17;3.30;99.90
7472;DHT22;3777;48.722;8.110;2024-01-30T01:13:46;3.20;99.90
7472;DHT22;3777;48.722;8.110;2024-01-30T01:16:13;3.10;99.90
7472;DHT22;3777;48.722;8.110;2024-01-30T01:18:39;3.10;99.90
7472;DHT22;3777;48.722;8.110;2024-01-30T01:21:06;3.10;99.90
7472;DHT22;3777;48.722;8.110;2024-01-30T01:23:33;3.10;99.90
7472;DHT22;3777;48.722;8.110;2024-01-30T01:26:00;3.10;99.90
7472;DHT22;3777;48.722;8.110;2024-01-30T01:28:27;3.10;99.90
7472;DHT22;3777;48.722;8.110;2024-01-30T01:30:55;3.00;99.90
7472;DHT22;3777;48.722;8.110;2024-01-30T01:33:30;3.00;99.90
7472;DHT22;3777;48.722;8.110;2024-01-30T01:35:58;2.90;99.90
7472;DHT22;3777;48.722;8.110;2024-01-30T01:38:28;2.90;99.90
7472;DHT22;3777;48.722;8.110;2024-01-30T01:40:55;2.90;99.90
7472;DHT22;3777;48.722;8.110;2024-01-30T01:43:21;2.90;99.90
7472;DHT22;3777;48.722;8.110;2024-01-30T01:45:48;2.90;99.90
7472;DHT22;3777;48.722;8.110;2024-01-30T01:48:17;2.90;99.90
7472;DHT22;3777;48.722;8.110;2024-01-30T01:50:44;2.90;99.90
7472;DHT22;3777;48.722;8.110;2024-01-30T01:53:12;2.90;99.90
7472;DHT22;3777;48.722;8.110;2024-01-30T01:55:39;2.90;99.90
7472;DHT22;3777;48.722;8.110;2024-01-30T01:58:07;2.80;99.90
7472;DHT22;3777;48.722;8.110;2024-01-30T02:00:36;2.80;99.90
7472;DHT22;3777;48.722;8.110;2024-01-30T02:03:06;2.80;99.90
7472;DHT22;3777;48.722;8.110;2024-01-30T02:05:35;2.80;99.90
7472;DHT22;3777;48.722;8.110;2024-01-30T02:08:03;2.70;99.90
7472;DHT22;3777;48.722;8.110;2024-01-30T02:10:30;2.70;99.90
7472;DHT22;3777;48.722;8.110;2024-01-30T02:12:57;2.80;99.90
7472;DHT22;3777;48.722;8.110;2024-01-30T02:15:24;2.70;99.90
7472;DHT22;3777;48.722;8.110;2024-01-30T02:17:51;2.70;99.90
7472;DHT22;3777;48.722;8.110;2024-01-30T02:20:18;2.70;99.90
7472;DHT22;3777;48.722;8.110;2024-01-30T02:22:47;2.70;99.90
7472;DHT22;3777;48.722;8.110;2024-01-30T02:25:15;2.70;99.90
7472;DHT22;3777;48.722;8.110;2024-01-30T02:27:42;2.70;99.90
7472;DHT22;3777;48.722;8.110;2024-01-30T02:30:10;2.70;99.90
7472;DHT22;3777;48.722;8.110;2024-01-30T02:32:37;2.70;99.90
7472;DHT22;3777;48.722;8.110;2024-01-30T02:35:04;2.70;99.90
7472;DHT22;3777;48.722;8.110;2024-01-30T02:37:31;2.60;99.90
7472;DHT22;3777;48.722;8.110;2024-01-30T02:39:59;2.60;99.90
7472;DHT22;3777;48.722;8.110;2024-01-30T02:42:26;2.60;99.90
7472;DHT22;3777;48.722;8.110;2024-01-30T02:44:53;2.70;99.90
7472;DHT22;3777;48.722;8.110;2024-01-30T02:47:20;2.70;99.90
7472;DHT22;3777;48.722;8.110;2024-01-30T02:49:47;2.60;99.90
7472;DHT22;3777;48.722;8.110;2024-01-30T02:52:14;2.60;99.90
7472;DHT22;3777;48.722;8.110;2024-01-30T02:54:41;2.60;99.90
7472;DHT22;3777;48.722;8.110;2024-01-30T02:57:09;2.60;99.90
7472;DHT22;3777;48.722;8.110;2024-01-30T02:59:36;2.60;99.90
7472;DHT22;3777;48.722;8.110;2024-01-30T03:02:03;2.60;99.90
7472;DHT22;3777;48.722;8.110;2024-01-30T03:04:30;2.60;99.90
7472;DHT22;3777;48.722;8.110;2024-01-30T03:06:57;2.60;99.90
7472;DHT22;3777;48.722;8.110;2024-01-30T03:09:24;2.60;99.90
7472;DHT22;3777;48.722;8.110;2024-01-30T03:11:51;2.60;99.90
7472;DHT22;3777;48.722;8.110;2024-01-30T03:14:20;2.60;99.90
7472;DHT22;3777;48.722;8.110;2024-01-30T03:16:47;2.60;99.90
7472;DHT22;3777;48.722;8.110;2024-01-30T03:19:14;2.60;99.90
7472;DHT22;3777;48.722;8.110;2024-01-30T03:21:41;2.60;99.90
7472;DHT22;3777;48.722;8.110;2024-01-30T03:24:07;2.60;99.90
7472;DHT22;3777;48.722;8.110;2024-01-30T03:26:34;2.60;99.90
7472;DHT22;3777;48.722;8.110;2024-01-30T03:29:01;2.60;99.90
7472;DHT22;3777;48.722;8.110;2024-01-30T03:31:33;2.60;99.90
7472;DHT22;3777;48.722;8.110;2024-01-30T03:34:00;2.60;99.90
7472;DHT22;3777;48.722;8.110;2024-01-30T03:36:28;2.60;99.90
7472;DHT22;3777;48.722;8.110;2024-01-30T03:38:58;2.60;99.90
7472;DHT22;3777;48.722;8.110;2024-01-30T03:41:25;2.60;99.90
7472;DHT22;3777;48.722;8.110;2024-01-30T03:43:52;2.60;99.90
7472;DHT22;3777;48.722;8.110;2024-01-30T03:46:19;2.60;99.90
7472;DHT22;3777;48.722;8.110;2024-01-30T03:48:47;2.60;99.90
7472;DHT22;3777;48.722;8.110;2024-01-30T03:51:14;2.60;99.90
7472;DHT22;3777;48.722;8.110;2024-01-30T03:53:41;2.60;99.90
7472;DHT22;3777;48.722;8.110;2024-01-30T03:56:08;2.60;99.90
7472;DHT22;3777;48.722;8.110;2024-01-30T03:58:35;2.60;99.90
7472;DHT22;3777;48.722;8.110;2024-01-30T04:01:03;2.60;99.90
7472;DHT22;3777;48.722;8.110;2024-01-30T04:03:30;2.60;99.90
7472;DHT22;3777;48.722;8.110;2024-01-30T04:05:58;2.60;99.90
7472;DHT22;3777;48.722;8.110;2024-01-30T04:08:25;2.70;99.90
7472;DHT22;3777;48.722;8.110;2024-01-30T04:10:52;2.60;99.90
7472;DHT22;3777;48.722;8.110;2024-01-30T04:13:20;2.60;99.90
7472;DHT22;3777;48.722;8.110;2024-01-30T04:15:47;2.70;99.90
7472;DHT22;3777;48.722;8.110;2024-01-30T04:18:14;2.70;99.90
7472;DHT22;3777;48.722;8.110;2024-01-30T04:20:40;2.70;99.90
7472;DHT22;3777;48.722;8.110;2024-01-30T04:23:09;2.60;99.90
7472;DHT22;3777;48.722;8.110;2024-01-30T04:25:36;2.60;99.90
7472;DHT22;3777;48.722;8.110;2024-01-30T04:28:03;2.60;99.90
7472;DHT22;3777;48.722;8.110;2024-01-30T04:30:30;2.60;99.90
7472;DHT22;3777;48.722;8.110;2024-01-30T04:32:57;2.60;99.90
7472;DHT22;3777;48.722;8.110;2024-01-30T04:35:24;2.60;99.90
7472;DHT22;3777;48.722;8.110;2024-01-30T04:37:52;2.60;99.90
7472;DHT22;3777;48.722;8.110;2024-01-30T04:40:20;2.60;99.90
7472;DHT22;3777;48.722;8.110;2024-01-30T04:42:47;2.60;99.90
7472;DHT22;3777;48.722;8.110;2024-01-30T04:45:14;2.60;99.90
7472;DHT22;3777;48.722;8.110;2024-01-30T04:47:42;2.60;99.90
7472;DHT22;3777;48.722;8.110;2024-01-30T04:50:09;2.60;99.90
7472;DHT22;3777;48.722;8.110;2024-01-30T04:52:36;2.60;99.90
7472;DHT22;3777;48.722;8.110;2024-01-30T04:55:04;2.60;99.90
7472;DHT22;3777;48.722;8.110;2024-01-30T04:57:32;2.60;99.90
7472;DHT22;3777;48.722;8.110;2024-01-30T05:00:00;2.60;99.90
7472;DHT22;3777;48.722;8.110;2024-01-30T05:02:27;2.60;99.90
7472;DHT22;3777;48.722;8.110;2024-01-30T05:04:54;2.60;99.90
7472;DHT22;3777;48.722;8.110;2024-01-30T05:07:21;2.60;99.90
7472;DHT22;3777;48.722;8.110;2024-01-30T05:09:48;2.50;99.90
7472;DHT22;3777;48.722;8.110;2024-01-30T05:12:15;2.50;99.90
7472;DHT22;3777;48.722;8.110;2024-01-30T05:14:43;2.50;99.90
7472;DHT22;3777;48.722;8.110;2024-01-30T05:17:10;2.50;99.90
7472;DHT22;3777;48.722;8.110;2024-01-30T05:19:38;2.50;99.90
7472;DHT22;3777;48.722;8.110;2024-01-30T05:22:05;2.50;99.90
7472;DHT22;3777;48.722;8.110;2024-01-30T05:24:33;2.50;99.90
7472;DHT22;3777;48.722;8.110;2024-01-30T05:27:00;2.50;99.90
7472;DHT22;3777;48.722;8.110;2024-01-30T05:29:28;2.50;99.90
7472;DHT22;3777;48.722;8.110;2024-01-30T05:31:56;2.60;99.90
7472;DHT22;3777;48.722;8.110;2024-01-30T05:34:23;2.50;99.90
7472;DHT22;3777;48.722;8.110;2024-01-30T05:36:50;2.50;99.90
7472;DHT22;3777;48.722;8.110;2024-01-30T05:39:17;2.50;99.90
7472;DHT22;3777;48.722;8.110;2024-01-30T05:41:44;2.50;99.90
7472;DHT22;3777;48.722;8.110;2024-01-30T05:44:11;2.50;99.90
7472;DHT22;3777;48.722;8.110;2024-01-30T05:46:38;2.50;99.90
7472;DHT22;3777;48.722;8.110;2024-01-30T05:49:06;2.50;99.90
7472;DHT22;3777;48.722;8.110;2024-01-30T05:51:33;2.50;99.90
7472;DHT22;3777;48.722;8.110;2024-01-30T05:54:00;2.50;99.90
7472;DHT22;3777;48.722;8.110;2024-01-30T05:56:29;2.50;99.90
7472;DHT22;3777;48.722;8.110;2024-01-30T05:58:56;2.50;99.90
7472;DHT22;3777;48.722;8.110;2024-01-30T06:01:23;2.50;99.90
7472;DHT22;3777;48.722;8.110;2024-01-30T06:03:50;2.50;99.90
7472;DHT22;3777;48.722;8.110;2024-01-30T06:06:18;2.40;99.90
7472;DHT22;3777;48.722;8.110;2024-01-30T06:08:45;2.40;99.90
7472;DHT22;3777;48.722;8.110;2024-01-30T06:11:12;2.50;99.90
7472;DHT22;3777;48.722;8.110;2024-01-30T06:13:39;2.50;99.90
7472;DHT22;3777;48.722;8.110;2024-01-30T06:16:09;2.50;99.90
7472;DHT22;3777;48.722;8.110;2024-01-30T06:18:36;2.50;99.90
7472;DHT22;3777;48.722;8.110;2024-01-30T06:21:04;2.50;99.90
7472;DHT22;3777;48.722;8.110;2024-01-30T06:23:33;2.50;99.90
7472;DHT22;3777;48.722;8.110;2024-01-30T06:25:59;2.60;99.90
7472;DHT22;3777;48.722;8.110;2024-01-30T06:28:26;2.60;99.90
7472;DHT22;3777;48.722;8.110;2024-01-30T06:30:53;2.60;99.90
7472;DHT22;3777;48.722;8.110;2024-01-30T06:33:20;2.60;99.90
7472;DHT22;3777;48.722;8.110;2024-01-30T06:35:48;2.60;99.90
7472;DHT22;3777;48.722;8.110;2024-01-30T06:38:15;2.60;99.90
7472;DHT22;3777;48.722;8.110;2024-01-30T06:40:43;2.60;99.90
7472;DHT22;3777;48.722;8.110;2024-01-30T06:43:10;2.70;99.90
7472;DHT22;3777;48.722;8.110;2024-01-30T06:45:37;2.60;99.90
7472;DHT22;3777;48.722;8.110;2024-01-30T06:48:05;2.70;99.90
7472;DHT22;3777;48.722;8.110;2024-01-30T06:50:32;2.70;99.90
7472;DHT22;3777;48.722;8.110;2024-01-30T06:52:59;2.70;99.90
7472;DHT22;3777;48.722;8.110;2024-01-30T06:55:26;2.70;99.90
7472;DHT22;3777;48.722;8.110;2024-01-30T06:57:54;2.70;99.90
7472;DHT22;3777;48.722;8.110;2024-01-30T07:00:21;2.70;99.90
7472;DHT22;3777;48.722;8.110;2024-01-30T07:02:49;2.70;99.90
7472;DHT22;3777;48.722;8.110;2024-01-30T07:05:16;2.70;99.90
7472;DHT22;3777;48.722;8.110;2024-01-30T07:07:43;2.70;99.90
7472;DHT22;3777;48.722;8.110;2024-01-30T07:10:10;2.70;99.90
7472;DHT22;3777;48.722;8.110;2024-01-30T07:12:37;2.70;99.90
7472;DHT22;3777;48.722;8.110;2024-01-30T07:15:06;2.70;99.90
7472;DHT22;3777;48.722;8.110;2024-01-30T07:17:34;2.80;99.90
7472;DHT22;3777;48.722;8.110;2024-01-30T07:20:01;2.80;99.90
7472;DHT22;3777;48.722;8.110;2024-01-30T07:22:30;2.80;99.90
7472;DHT22;3777;48.722;8.110;2024-01-30T07:24:57;2.80;99.90
7472;DHT22;3777;48.722;8.110;2024-01-30T07:27:24;2.90;99.90
7472;DHT22;3777;48.722;8.110;2024-01-30T07:29:51;2.90;99.90
7472;DHT22;3777;48.722;8.110;2024-01-30T07:32:19;2.90;99.90
7472;DHT22;3777;48.722;8.110;2024-01-30T07:34:46;3.00;99.90
7472;DHT22;3777;48.722;8.110;2024-01-30T07:37:13;3.00;99.90
7472;DHT22;3777;48.722;8.110;2024-01-30T07:39:41;3.10;99.90
7472;DHT22;3777;48.722;8.110;2024-01-30T07:42:08;3.20;99.90
7472;DHT22;3777;48.722;8.110;2024-01-30T07:44:35;3.20;99.90
7472;DHT22;3777;48.722;8.110;2024-01-30T07:47:02;3.30;99.90
7472;DHT22;3777;48.722;8.110;2024-01-30T07:49:33;3.40;99.90
7472;DHT22;3777;48.722;8.110;2024-01-30T07:52:00;3.50;99.90
7472;DHT22;3777;48.722;8.110;2024-01-30T07:54:27;3.60;99.90
7472;DHT22;3777;48.722;8.110;2024-01-30T07:56:59;3.70;99.90
7472;DHT22;3777;48.722;8.110;2024-01-30T07:59:25;3.70;99.90
7472;DHT22;3777;48.722;8.110;2024-01-30T08:01:52;3.90;99.90
7472;DHT22;3777;48.722;8.110;2024-01-30T08:04:19;4.00;99.90
7472;DHT22;3777;48.722;8.110;2024-01-30T08:06:48;4.10;99.90
7472;DHT22;3777;48.722;8.110;2024-01-30T08:09:18;4.20;99.90
7472;DHT22;3777;48.722;8.110;2024-01-30T08:11:45;4.30;99.90
7472;DHT22;3777;48.722;8.110;2024-01-30T08:14:12;4.50;99.90
7472;DHT22;3777;48.722;8.110;2024-01-30T08:16:39;4.60;99.90
7472;DHT22;3777;48.722;8.110;2024-01-30T08:19:06;4.60;99.90
7472;DHT22;3777;48.722;8.110;2024-01-30T08:21:33;4.70;99.90
7472;DHT22;3777;48.722;8.110;2024-01-30T08:24:04;4.80;99.90
7472;DHT22;3777;48.722;8.110;2024-01-30T08:26:31;4.90;99.90
7472;DHT22;3777;48.722;8.110;2024-01-30T08:28:58;4.90;99.90
7472;DHT22;3777;48.722;8.110;2024-01-30T08:31:26;5.00;99.90
7472;DHT22;3777;48.722;8.110;2024-01-30T08:33:54;5.10;99.90
7472;DHT22;3777;48.722;8.110;2024-01-30T08:36:21;5.20;99.90
7472;DHT22;3777;48.722;8.110;2024-01-30T08:38:48;5.30;99.90
7472;DHT22;3777;48.722;8.110;2024-01-30T08:41:16;5.30;99.90
7472;DHT22;3777;48.722;8.110;2024-01-30T08:43:43;5.40;99.90
7472;DHT22;3777;48.722;8.110;2024-01-30T08:46:11;5.50;99.90
7472;DHT22;3777;48.722;8.110;2024-01-30T08:48:38;5.60;99.90
7472;DHT22;3777;48.722;8.110;2024-01-30T08:51:05;5.70;99.90
7472;DHT22;3777;48.722;8.110;2024-01-30T08:53:34;5.80;99.90
7472;DHT22;3777;48.722;8.110;2024-01-30T08:56:02;5.90;99.90
7472;DHT22;3777;48.722;8.110;2024-01-30T08:58:30;6.00;99.90
7472;DHT22;3777;48.722;8.110;2024-01-30T09:00:58;6.10;99.90
7472;DHT22;3777;48.722;8.110;2024-01-30T09:03:25;6.20;99.90
7472;DHT22;3777;48.722;8.110;2024-01-30T09:05:52;6.30;99.90
7472;DHT22;3777;48.722;8.110;2024-01-30T09:08:19;6.40;99.90
7472;DHT22;3777;48.722;8.110;2024-01-30T09:10:46;6.50;99.90
7472;DHT22;3777;48.722;8.110;2024-01-30T09:13:13;6.70;99.90
7472;DHT22;3777;48.722;8.110;2024-01-30T09:15:41;6.80;99.90
7472;DHT22;3777;48.722;8.110;2024-01-30T09:18:09;7.00;99.90
7472;DHT22;3777;48.722;8.110;2024-01-30T09:20:36;7.10;99.90
7472;DHT22;3777;48.722;8.110;2024-01-30T09:23:03;7.30;99.90
7472;DHT22;3777;48.722;8.110;2024-01-30T09:25:30;7.40;99.90
7472;DHT22;3777;48.722;8.110;2024-01-30T09:27:57;7.60;99.90
7472;DHT22;3777;48.722;8.110;2024-01-30T09:30:24;7.70;99.90
7472;DHT22;3777;48.722;8.110;2024-01-30T09:32:53;7.80;99.90
7472;DHT22;3777;48.722;8.110;2024-01-30T09:35:20;7.90;99.90
7472;DHT22;3777;48.722;8.110;2024-01-30T09:37:46;8.00;99.90
7472;DHT22;3777;48.722;8.110;2024-01-30T09:40:14;8.00;99.90
7472;DHT22;3777;48.722;8.110;2024-01-30T09:42:47;8.10;99.90
7472;DHT22;3777;48.722;8.110;2024-01-30T09:45:16;8.10;99.90
7472;DHT22;3777;48.722;8.110;2024-01-30T09:47:45;8.20;99.90
7472;DHT22;3777;48.722;8.110;2024-01-30T09:50:16;8.30;99.90
7472;DHT22;3777;48.722;8.110;2024-01-30T09:52:43;8.30;99.90
7472;DHT22;3777;48.722;8.110;2024-01-30T09:55:11;8.20;99.90
7472;DHT22;3777;48.722;8.110;2024-01-30T09:57:38;8.20;99.90
7472;DHT22;3777;48.722;8.110;2024-01-30T10:00:06;8.10;99.90
7472;DHT22;3777;48.722;8.110;2024-01-30T10:02:34;8.00;99.90
7472;DHT22;3777;48.722;8.110;2024-01-30T10:05:01;7.90;99.90
7472;DHT22;3777;48.722;8.110;2024-01-30T10:07:30;8.10;99.90
7472;DHT22;3777;48.722;8.110;2024-01-30T10:09:57;8.40;99.90
7472;DHT22;3777;48.722;8.110;2024-01-30T10:12:27;8.60;99.90
7472;DHT22;3777;48.722;8.110;2024-01-30T10:14:56;8.80;99.90
7472;DHT22;3777;48.722;8.110;2024-01-30T10:17:25;9.00;99.90
7472;DHT22;3777;48.722;8.110;2024-01-30T10:19:52;9.20;99.90
7472;DHT22;3777;48.722;8.110;2024-01-30T10:22:19;9.40;99.90
7472;DHT22;3777;48.722;8.110;2024-01-30T10:24:48;9.60;99.90
7472;DHT22;3777;48.722;8.110;2024-01-30T10:27:15;9.70;99.90
7472;DHT22;3777;48.722;8.110;2024-01-30T10:29:43;9.90;99.90
7472;DHT22;3777;48.722;8.110;2024-01-30T10:32:10;10.00;99.90
7472;DHT22;3777;48.722;8.110;2024-01-30T10:34:38;9.90;99.90
7472;DHT22;3777;48.722;8.110;2024-01-30T10:37:08;10.00;99.90
7472;DHT22;3777;48.722;8.110;2024-01-30T10:39:39;10.20;99.90
7472;DHT22;3777;48.722;8.110;2024-01-30T10:42:11;10.30;99.90
7472;DHT22;3777;48.722;8.110;2024-01-30T10:44:44;10.40;99.90
7472;DHT22;3777;48.722;8.110;2024-01-30T10:47:17;10.40;99.90
7472;DHT22;3777;48.722;8.110;2024-01-30T10:49:45;10.50;99.90
7472;DHT22;3777;48.722;8.110;2024-01-30T10:52:13;10.50;99.90
7472;DHT22;3777;48.722;8.110;2024-01-30T10:54:44;10.60;99.90
7472;DHT22;3777;48.722;8.110;2024-01-30T10:57:13;10.50;99.90
7472;DHT22;3777;48.722;8.110;2024-01-30T10:59:43;10.40;99.90
7472;DHT22;3777;48.722;8.110;2024-01-30T11:02:11;10.40;99.90
7472;DHT22;3777;48.722;8.110;2024-01-30T11:04:38;10.40;99.90
7472;DHT22;3777;48.722;8.110;2024-01-30T11:07:16;10.40;99.90
7472;DHT22;3777;48.722;8.110;2024-01-30T11:09:49;10.20;99.90
7472;DHT22;3777;48.722;8.110;2024-01-30T11:12:21;9.90;99.90
7472;DHT22;3777;48.722;8.110;2024-01-30T11:14:50;10.30;99.90
7472;DHT22;3777;48.722;8.110;2024-01-30T11:17:17;10.90;99.90
7472;DHT22;3777;48.722;8.110;2024-01-30T11:19:46;11.10;99.90
7472;DHT22;3777;48.722;8.110;2024-01-30T11:22:13;11.40;99.90
7472;DHT22;3777;48.722;8.110;2024-01-30T11:24:40;11.50;99.90
7472;DHT22;3777;48.722;8.110;2024-01-30T11:27:09;11.20;99.90
7472;DHT22;3777;48.722;8.110;2024-01-30T11:29:36;11.70;99.90
7472;DHT22;3777;48.722;8.110;2024-01-30T11:32:04;12.10;99.90
7472;DHT22;3777;48.722;8.110;2024-01-30T11:34:33;12.40;99.90
7472;DHT22;3777;48.722;8.110;2024-01-30T11:37:04;12.50;99.90
7472;DHT22;3777;48.722;8.110;2024-01-30T11:39:36;12.80;99.90
7472;DHT22;3777;48.722;8.110;2024-01-30T11:42:06;13.10;99.90
7472;DHT22;3777;48.722;8.110;2024-01-30T11:44:35;13.30;99.90
7472;DHT22;3777;48.722;8.110;2024-01-30T11:47:03;13.30;99.90
7472;DHT22;3777;48.722;8.110;2024-01-30T11:49:30;13.30;99.90
7472;DHT22;3777;48.722;8.110;2024-01-30T11:51:57;13.20;99.90
7472;DHT22;3777;48.722;8.110;2024-01-30T11:54:24;13.10;99.90
7472;DHT22;3777;48.722;8.110;2024-01-30T11:56:51;13.00;99.90
7472;DHT22;3777;48.722;8.110;2024-01-30T11:59:18;12.90;99.90
7472;DHT22;3777;48.722;8.110;2024-01-30T12:01:46;12.80;99.90
7472;DHT22;3777;48.722;8.110;2024-01-30T12:04:14;12.70;99.90
7472;DHT22;3777;48.722;8.110;2024-01-30T12:06:41;12.60;99.90
7472;DHT22;3777;48.722;8.110;2024-01-30T12:09:09;12.30;99.90
7472;DHT22;3777;48.722;8.110;2024-01-30T12:11:44;12.00;99.90
7472;DHT22;3777;48.722;8.110;2024-01-30T12:14:12;11.90;99.90
7472;DHT22;3777;48.722;8.110;2024-01-30T12:16:39;11.80;99.90
7472;DHT22;3777;48.722;8.110;2024-01-30T12:19:08;11.70;99.90
7472;DHT22;3777;48.722;8.110;2024-01-30T12:21:35;11.70;99.90
7472;DHT22;3777;48.722;8.110;2024-01-30T12:24:02;11.80;99.90
7472;DHT22;3777;48.722;8.110;2024-01-30T12:26:29;11.60;99.90
7472;DHT22;3777;48.722;8.110;2024-01-30T12:28:57;11.60;99.90
7472;DHT22;3777;48.722;8.110;2024-01-30T12:31:27;11.60;99.90
7472;DHT22;3777;48.722;8.110;2024-01-30T12:33:54;11.90;99.90
7472;DHT22;3777;48.722;8.110;2024-01-30T12:36:23;12.20;99.90
7472;DHT22;3777;48.722;8.110;2024-01-30T12:38:50;12.30;99.90
7472;DHT22;3777;48.722;8.110;2024-01-30T12:41:18;12.40;99.90
7472;DHT22;3777;48.722;8.110;2024-01-30T12:43:46;12.60;99.90
7472;DHT22;3777;48.722;8.110;2024-01-30T12:46:16;12.70;99.90
7472;DHT22;3777;48.722;8.110;2024-01-30T12:48:43;12.80;99.90
7472;DHT22;3777;48.722;8.110;2024-01-30T12:51:10;13.00;99.90
7472;DHT22;3777;48.722;8.110;2024-01-30T12:53:39;13.10;99.90
7472;DHT22;3777;48.722;8.110;2024-01-30T12:56:06;13.10;99.90
7472;DHT22;3777;48.722;8.110;2024-01-30T12:58:33;13.20;99.90
7472;DHT22;3777;48.722;8.110;2024-01-30T13:01:00;13.30;99.90
7472;DHT22;3777;48.722;8.110;2024-01-30T13:03:27;13.40;99.90
7472;DHT22;3777;48.722;8.110;2024-01-30T13:05:54;13.50;99.90
7472;DHT22;3777;48.722;8.110;2024-01-30T13:08:21;13.50;99.90
7472;DHT22;3777;48.722;8.110;2024-01-30T13:10:50;13.60;99.90
7472;DHT22;3777;48.722;8.110;2024-01-30T13:13:17;13.60;99.90
7472;DHT22;3777;48.722;8.110;2024-01-30T13:15:44;13.60;99.90
7472;DHT22;3777;48.722;8.110;2024-01-30T13:18:11;13.60;99.90
7472;DHT22;3777;48.722;8.110;2024-01-30T13:20:38;13.70;99.90
7472;DHT22;3777;48.722;8.110;2024-01-30T13:23:05;13.70;99.90
7472;DHT22;3777;48.722;8.110;2024-01-30T13:25:32;13.70;99.90
7472;DHT22;3777;48.722;8.110;2024-01-30T13:28:00;13.80;99.90
7472;DHT22;3777;48.722;8.110;2024-01-30T13:30:27;13.80;99.90
7472;DHT22;3777;48.722;8.110;2024-01-30T13:32:54;13.80;99.90
7472;DHT22;3777;48.722;8.110;2024-01-30T13:35:21;13.90;99.90
7472;DHT22;3777;48.722;8.110;2024-01-30T13:37:48;14.00;99.90
7472;DHT22;3777;48.722;8.110;2024-01-30T13:40:15;14.00;99.90
7472;DHT22;3777;48.722;8.110;2024-01-30T13:42:43;14.00;99.90
7472;DHT22;3777;48.722;8.110;2024-01-30T13:45:11;14.10;99.90
7472;DHT22;3777;48.722;8.110;2024-01-30T13:47:38;14.10;99.90
7472;DHT22;3777;48.722;8.110;2024-01-30T13:50:05;14.00;99.90
7472;DHT22;3777;48.722;8.110;2024-01-30T13:52:33;14.10;99.90
7472;DHT22;3777;48.722;8.110;2024-01-30T13:55:00;14.00;99.90
7472;DHT22;3777;48.722;8.110;2024-01-30T13:57:28;14.00;99.90
7472;DHT22;3777;48.722;8.110;2024-01-30T13:59:58;13.90;99.90
7472;DHT22;3777;48.722;8.110;2024-01-30T14:02:27;14.00;99.90
7472;DHT22;3777;48.722;8.110;2024-01-30T14:04:54;13.90;99.90
7472;DHT22;3777;48.722;8.110;2024-01-30T14:07:21;13.80;99.90
7472;DHT22;3777;48.722;8.110;2024-01-30T14:09:48;13.80;99.90
7472;DHT22;3777;48.722;8.110;2024-01-30T14:12:15;13.80;99.90
7472;DHT22;3777;48.722;8.110;2024-01-30T14:14:42;13.80;99.90
7472;DHT22;3777;48.722;8.110;2024-01-30T14:17:09;13.80;99.90
7472;DHT22;3777;48.722;8.110;2024-01-30T14:19:38;13.80;99.90
7472;DHT22;3777;48.722;8.110;2024-01-30T14:22:05;13.70;99.90
7472;DHT22;3777;48.722;8.110;2024-01-30T14:24:32;13.70;99.90
7472;DHT22;3777;48.722;8.110;2024-01-30T14:26:59;13.70;99.90
7472;DHT22;3777;48.722;8.110;2024-01-30T14:29:26;13.60;99.90
7472;DHT22;3777;48.722;8.110;2024-01-30T14:31:53;13.60;99.90
7472;DHT22;3777;48.722;8.110;2024-01-30T14:34:20;13.50;99.90
7472;DHT22;3777;48.722;8.110;2024-01-30T14:36:49;13.50;99.90
7472;DHT22;3777;48.722;8.110;2024-01-30T14:39:16;13.50;99.90
7472;DHT22;3777;48.722;8.110;2024-01-30T14:41:43;13.50;99.90
7472;DHT22;3777;48.722;8.110;2024-01-30T14:44:10;13.40;99.90
7472;DHT22;3777;48.722;8.110;2024-01-30T14:46:37;13.40;99.90
7472;DHT22;3777;48.722;8.110;2024-01-30T14:49:04;13.40;99.90
7472;DHT22;3777;48.722;8.110;2024-01-30T14:51:33;13.40;99.90
7472;DHT22;3777;48.722;8.110;2024-01-30T14:54:02;13.40;99.90
7472;DHT22;3777;48.722;8.110;2024-01-30T14:56:32;13.30;99.90
7472;DHT22;3777;48.722;8.110;2024-01-30T14:58:59;13.20;99.90
7472;DHT22;3777;48.722;8.110;2024-01-30T15:01:27;13.20;99.90
7472;DHT22;3777;48.722;8.110;2024-01-30T15:03:53;13.10;99.90
7472;DHT22;3777;48.722;8.110;2024-01-30T15:06:21;13.10;99.90
7472;DHT22;3777;48.722;8.110;2024-01-30T15:08:49;13.10;99.90
7472;DHT22;3777;48.722;8.110;2024-01-30T15:11:18;13.10;99.90
7472;DHT22;3777;48.722;8.110;2024-01-30T15:13:44;13.00;99.90
7472;DHT22;3777;48.722;8.110;2024-01-30T15:16:12;13.00;99.90
7472;DHT22;3777;48.722;8.110;2024-01-30T15:18:39;12.90;99.90
7472;DHT22;3777;48.722;8.110;2024-01-30T15:21:06;12.90;99.90
7472;DHT22;3777;48.722;8.110;2024-01-30T15:23:33;12.80;99.90
7472;DHT22;3777;48.722;8.110;2024-01-30T15:26:00;12.80;99.90
7472;DHT22;3777;48.722;8.110;2024-01-30T15:28:35;12.70;99.90
7472;DHT22;3777;48.722;8.110;2024-01-30T15:31:03;12.70;99.90
7472;DHT22;3777;48.722;8.110;2024-01-30T15:33:30;12.70;99.90
7472;DHT22;3777;48.722;8.110;2024-01-30T15:35:58;12.70;99.90
7472;DHT22;3777;48.722;8.110;2024-01-30T15:38:25;12.70;99.90
7472;DHT22;3777;48.722;8.110;2024-01-30T15:40:53;12.60;99.90
7472;DHT22;3777;48.722;8.110;2024-01-30T15:43:20;12.60;99.90
7472;DHT22;3777;48.722;8.110;2024-01-30T15:45:48;12.60;99.90
7472;DHT22;3777;48.722;8.110;2024-01-30T15:48:16;12.50;99.90
7472;DHT22;3777;48.722;8.110;2024-01-30T15:50:43;12.50;99.90
7472;DHT22;3777;48.722;8.110;2024-01-30T15:53:10;12.50;99.90
7472;DHT22;3777;48.722;8.110;2024-01-30T15:55:37;12.50;99.90
7472;DHT22;3777;48.722;8.110;2024-01-30T15:58:04;12.40;99.90
7472;DHT22;3777;48.722;8.110;2024-01-30T16:00:32;12.40;99.90
7472;DHT22;3777;48.722;8.110;2024-01-30T16:03:00;12.40;99.90
7472;DHT22;3777;48.722;8.110;2024-01-30T16:05:27;12.30;99.90
7472;DHT22;3777;48.722;8.110;2024-01-30T16:07:54;12.30;99.90
7472;DHT22;3777;48.722;8.110;2024-01-30T16:10:21;12.20;99.90
7472;DHT22;3777;48.722;8.110;2024-01-30T16:12:48;12.20;99.90